Time;durP1;ratioP1;P1;durP2;ratioP2;P2;SDS_P1;SDS_P2;PMS_P1;PMS_P2;Temp;Humidity;BMP_temperature;BMP_pressure;BME280_temperature;BME280_humidity;BME280_pressure;Samples;Min_cycle;Max_cycle;Signal;HPM_P1;HPM_P2
2024/01/28 07:38:11;;;;;;;0.73;0.70;;;2.60;99.90;5.40;102551.00;;;;5069640;28;20965;-73
2024/01/28 07:40:37;;;;;;;0.97;0.97;;;2.50;99.90;5.10;102540.00;;;;5049196;28;20273;-73
2024/01/28 07:43:09;;;;;;;0.67;0.67;;;2.50;99.90;4.70;102478.00;;;;5048573;28;20213;-73
2024/01/28 07:45:38;;;;;;;0.40;0.40;;;2.30;99.90;4.90;102524.00;;;;5048955;28;20182;-74
2024/01/28 07:48:04;;;;;;;1.60;1.37;;;2.40;99.90;4.50;102468.00;;;;5048622;28;20197;-73
2024/01/28 07:50:30;;;;;;;0.53;0.53;;;2.20;99.90;4.90;102526.00;;;;5048306;28;20183;-74
2024/01/28 07:52:58;;;;;;;1.03;0.87;;;2.20;99.90;5.30;102503.00;;;;5048562;28;20731;-74
2024/01/28 07:55:24;;;;;;;0.53;0.53;;;2.30;99.90;4.90;102504.00;;;;5038635;28;20225;-74
2024/01/28 07:57:50;;;;;;;2.27;2.10;;;2.40;99.90;5.30;102524.00;;;;5043348;28;20233;-74
2024/01/28 08:00:17;;;;;;;0.80;0.80;;;2.50;99.90;5.20;102458.00;;;;5050003;28;20214;-73
2024/01/28 08:02:49;;;;;;;2.43;2.23;;;2.50;99.90;5.20;102493.00;;;;5042981;28;20186;-73
2024/01/28 08:05:20;;;;;;;0.40;0.40;;;2.50;99.90;5.40;102515.00;;;;5048395;28;20186;-72
2024/01/28 08:07:50;;;;;;;0.40;0.40;;;2.70;99.90;5.10;102496.00;;;;5064830;28;20178;-73
2024/01/28 08:10:24;;;;;;;1.00;1.00;;;2.60;99.90;5.20;102500.00;;;;5049710;28;20186;-73
2024/01/28 08:12:55;;;;;;;0.93;0.90;;;2.60;99.90;5.40;102490.00;;;;5048404;28;20194;-73
2024/01/28 08:15:21;;;;;;;1.07;1.07;;;2.70;99.90;5.40;102504.00;;;;5047469;28;20187;-74
2024/01/28 08:17:49;;;;;;;0.50;0.50;;;2.70;99.90;5.30;102500.00;;;;5049171;28;20244;-75
2024/01/28 08:20:25;;;;;;;1.03;0.93;;;2.80;99.90;4.80;102498.00;;;;5028876;28;20273;-74
2024/01/28 08:22:54;;;;;;;1.33;1.23;;;2.70;99.90;5.10;102464.00;;;;5027480;28;20328;-79
2024/01/28 08:25:23;;;;;;;1.63;1.53;;;2.70;99.90;5.10;102478.00;;;;5049187;28;20212;-75
2024/01/28 08:27:49;;;;;;;1.93;1.83;;;2.70;99.90;5.20;102463.00;;;;5037175;28;20613;-76
2024/01/28 08:30:17;;;;;;;0.77;0.77;;;2.80;99.90;5.50;102451.00;;;;5048317;28;20209;-75
2024/01/28 08:32:47;;;;;;;2.97;0.87;;;2.90;99.90;5.70;102466.00;;;;5045004;28;20187;-74
2024/01/28 08:35:13;;;;;;;1.33;1.33;;;3.10;99.90;5.80;102486.00;;;;5053193;28;20262;-74
2024/01/28 08:37:47;;;;;;;2.47;0.60;;;3.20;99.90;6.10;102437.00;;;;5051428;28;20767;-74
2024/01/28 08:40:19;;;;;;;0.67;0.67;;;3.40;99.90;5.80;102438.00;;;;5052763;28;20544;-74
2024/01/28 08:42:47;;;;;;;0.73;0.43;;;3.50;99.90;5.90;102484.00;;;;5056131;28;20261;-74
2024/01/28 08:45:17;;;;;;;1.17;1.07;;;3.50;99.90;6.00;102467.00;;;;5048331;28;20193;-74
2024/01/28 08:47:43;;;;;;;2.87;2.27;;;3.60;99.90;6.20;102420.00;;;;5034817;28;20203;-75
2024/01/28 08:50:27;;;;;;;1.57;1.47;;;3.80;99.90;6.00;102474.00;;;;5025466;28;20191;-74
2024/01/28 08:52:53;;;;;;;0.30;0.30;;;3.80;99.90;6.20;102477.00;;;;5029732;28;20240;-74
2024/01/28 08:55:31;;;;;;;0.97;0.97;;;3.90;99.90;6.70;102476.00;;;;5034940;28;20180;-74
2024/01/28 08:57:57;;;;;;;1.70;1.37;;;4.20;99.90;6.20;102469.00;;;;5033481;28;20235;-74
2024/01/28 09:00:25;;;;;;;0.40;0.40;;;4.20;99.90;6.70;102477.00;;;;5047826;28;20212;-74
2024/01/28 09:02:57;;;;;;;0.40;0.40;;;4.30;99.90;7.00;102483.00;;;;5041826;28;20196;-74
2024/01/28 09:05:26;;;;;;;2.13;1.93;;;4.50;99.90;7.80;102484.00;;;;5033887;28;20228;-74
2024/01/28 09:07:52;;;;;;;4.80;4.40;;;4.90;99.90;7.30;102485.00;;;;5040904;28;20536;-74
2024/01/28 09:10:21;;;;;;;0.83;0.83;;;4.90;99.90;7.50;102492.00;;;;5033495;28;20187;-74
2024/01/28 09:12:50;;;;;;;1.03;0.93;;;5.00;99.90;7.90;102492.00;;;;5028857;28;20189;-75
2024/01/28 09:15:27;;;;;;;0.53;0.53;;;5.20;99.90;8.30;102502.00;;;;5033606;28;20200;-75
2024/01/28 09:17:54;;;;;;;0.80;0.80;;;5.40;99.90;8.50;102505.00;;;;5027330;28;20214;-75
2024/01/28 09:20:23;;;;;;;0.53;0.53;;;5.70;99.90;7.90;102486.00;;;;5033737;28;20179;-75
2024/01/28 09:22:51;;;;;;;0.40;0.40;;;5.80;99.90;9.00;102504.00;;;;5034632;28;20251;-75
2024/01/28 09:25:20;;;;;;;0.60;0.60;;;6.00;99.90;9.00;102499.00;;;;5050394;28;20272;-75
2024/01/28 09:27:52;;;;;;;1.87;1.33;;;6.10;99.90;8.90;102515.00;;;;5034753;28;20647;-75
2024/01/28 09:30:17;;;;;;;1.30;1.20;;;6.40;99.90;9.10;102508.00;;;;5034277;28;20302;-75
2024/01/28 09:32:46;;;;;;;0.63;0.63;;;6.30;99.90;9.30;102525.00;;;;5042167;28;20730;-75
2024/01/28 09:35:12;;;;;;;2.67;1.07;;;6.50;99.90;9.50;102517.00;;;;5042932;28;20206;-75
2024/01/28 09:37:38;;;;;;;0.63;0.63;;;6.80;99.90;9.80;102529.00;;;;5041982;28;20245;-76
2024/01/28 09:40:05;;;;;;;4.40;3.37;;;7.00;99.90;10.30;102530.00;;;;5042464;28;20712;-77
2024/01/28 09:43:03;;;;;;;1.20;0.67;;;7.20;99.90;9.50;102541.00;;;;5043913;28;20256;-76
2024/01/28 09:45:33;;;;;;;0.40;0.30;;;7.20;99.90;10.30;102545.00;;;;5041988;28;20186;-76
2024/01/28 09:47:59;;;;;;;0.83;0.83;;;7.40;99.90;11.00;102542.00;;;;5042570;28;20687;-75
2024/01/28 09:50:28;;;;;;;0.80;0.80;;;7.80;99.90;10.70;102548.00;;;;5041379;28;20724;-75
2024/01/28 09:52:57;;;;;;;1.53;0.73;;;7.90;99.90;10.90;102548.00;;;;5044141;28;20305;-76
2024/01/28 09:55:23;;;;;;;1.77;0.90;;;8.00;99.90;11.20;102523.00;;;;5040816;28;20181;-75
2024/01/28 09:57:52;;;;;;;8.33;1.77;;;8.20;99.90;11.50;102539.00;;;;5041954;28;20215;-76
2024/01/28 10:00:21;;;;;;;0.80;0.80;;;8.30;99.90;11.80;102499.00;;;;5041202;28;20206;-76
2024/01/28 10:02:47;;;;;;;2.30;0.73;;;8.60;99.90;11.40;102543.00;;;;5041294;28;20189;-75
2024/01/28 10:05:14;;;;;;;1.90;1.30;;;8.60;99.90;11.30;102543.00;;;;5040441;28;20244;-75
2024/01/28 10:07:50;;;;;;;1.43;0.93;;;8.60;99.90;11.60;102537.00;;;;5040159;28;20191;-79
2024/01/28 10:10:23;;;;;;;1.30;1.30;;;8.60;99.90;12.20;102496.00;;;;5040680;28;20176;-73
2024/01/28 10:12:49;;;;;;;0.83;0.67;;;8.90;99.90;12.80;102521.00;;;;5042109;28;20184;-74
2024/01/28 10:15:26;;;;;;;0.40;0.40;;;9.40;99.90;13.00;102520.00;;;;5042183;28;20193;-76
2024/01/28 10:17:52;;;;;;;1.13;0.63;;;9.70;99.90;12.00;102543.00;;;;5041312;28;20213;-77
2024/01/28 10:20:28;;;;;;;0.40;0.30;;;9.50;99.90;13.00;102512.00;;;;5042114;28;20687;-77
2024/01/28 10:33:27;;;;;;;0.47;0.47;;;8.80;99.90;11.70;102485.00;;;;5079385;28;20562;-76
2024/01/28 10:35:59;;;;;;;0.20;0.20;;;9.00;99.90;11.90;102551.00;;;;5073762;28;20216;-76
2024/01/28 10:38:26;;;;;;;1.60;1.50;;;9.30;99.90;12.20;102535.00;;;;5057112;28;20204;-76
2024/01/28 10:40:56;;;;;;;0.30;0.30;;;9.40;99.90;12.70;102537.00;;;;5057343;28;20232;-76
2024/01/28 10:43:30;;;;;;;0.70;0.70;;;9.50;99.90;13.30;102524.00;;;;5057884;28;20178;-79
2024/01/28 10:46:06;;;;;;;1.43;1.33;;;9.90;99.90;13.70;102484.00;;;;5056138;28;20269;-77
2024/01/28 10:48:36;;;;;;;1.10;1.00;;;10.30;99.90;14.40;102487.00;;;;5041032;28;20191;-77
2024/01/28 10:51:03;;;;;;;0.50;0.50;;;10.80;99.90;14.30;102467.00;;;;5057424;28;20207;-78
2024/01/28 10:53:33;;;;;;;0.43;0.30;;;10.90;99.90;13.00;102488.00;;;;5040173;28;20204;-76
2024/01/28 10:56:09;;;;;;;0.30;0.30;;;10.60;99.90;13.30;102475.00;;;;5056428;28;20214;-76
2024/01/28 10:58:36;;;;;;;0.53;0.53;;;10.30;99.90;12.50;102506.00;;;;5056893;28;20616;-75
2024/01/28 11:01:04;;;;;;;0.33;0.33;;;10.00;99.90;13.30;102497.00;;;;5058155;28;20299;-77
2024/01/28 11:03:33;;;;;;;0.60;0.60;;;10.20;99.90;13.00;102488.00;;;;5036725;28;20652;-77
2024/01/28 11:06:00;;;;;;;0.50;0.40;;;10.10;99.90;13.20;102477.00;;;;5047429;28;20267;-76
2024/01/28 11:08:33;;;;;;;0.93;0.87;;;10.30;99.90;13.30;102490.00;;;;5047817;28;20545;-77
2024/01/28 11:10:59;;;;;;;1.00;1.00;;;10.00;99.90;13.10;102407.00;;;;5047723;28;20180;-76
2024/01/28 11:13:25;;;;;;;0.10;0.10;;;10.20;99.90;13.00;102484.00;;;;5048567;28;20721;-76
2024/01/28 11:15:57;;;;;;;0.10;0.10;;;10.10;99.90;14.00;102443.00;;;;5030933;28;20192;-76
2024/01/28 11:18:31;;;;;;;3.03;0.80;;;10.50;99.90;13.20;102474.00;;;;5048207;28;20195;-76
2024/01/28 11:21:18;;;;;;;0.50;0.50;;;10.30;99.90;13.30;102482.00;;;;5047535;28;20187;-76
2024/01/28 11:23:50;;;;;;;0.40;0.40;;;10.20;99.90;13.20;102470.00;;;;5035080;28;20196;-76
2024/01/28 11:26:19;;;;;;;0.40;0.40;;;10.30;99.90;13.70;102465.00;;;;5057147;28;20689;-76
2024/01/28 11:28:52;;;;;;;0.30;0.30;;;10.40;99.90;13.20;102487.00;;;;5055437;28;20229;-76
2024/01/28 11:31:38;;;;;;;0.63;0.63;;;10.30;99.90;13.50;102484.00;;;;5039598;28;20224;-75
2024/01/28 11:34:22;;;;;;;0.20;0.20;;;10.40;99.90;13.40;102475.00;;;;5056164;28;20189;-76
2024/01/28 11:36:55;;;;;;;0.50;0.50;;;10.40;99.90;13.80;102443.00;;;;5056123;28;20188;-76
2024/01/28 11:39:37;;;;;;;0.20;0.20;;;10.50;99.90;13.00;102426.00;;;;5056269;28;20210;-76
2024/01/28 11:42:03;;;;;;;0.77;0.77;;;10.30;99.90;13.30;102483.00;;;;5055950;28;20206;-76
2024/01/28 11:44:29;;;;;;;1.03;0.60;;;10.20;99.90;12.60;102493.00;;;;5028329;28;20272;-76
2024/01/28 11:47:13;;;;;;;0.57;0.57;;;10.10;99.90;12.80;102489.00;;;;5027268;28;20323;-75
2024/01/28 11:49:43;;;;;;;0.10;0.10;;;9.90;99.90;13.60;102478.00;;;;5027303;28;20281;-76
2024/01/28 11:52:15;;;;;;;0.83;0.83;;;10.10;99.90;13.20;102464.00;;;;5042282;28;20195;-76
2024/01/28 11:54:47;;;;;;;0.10;0.10;;;10.20;99.90;13.70;102461.00;;;;5042018;28;20199;-75
2024/01/28 11:57:17;;;;;;;0.20;0.20;;;10.20;99.90;13.50;102472.00;;;;5024322;28;20190;-76
2024/01/28 11:59:45;;;;;;;0.10;0.10;;;10.40;99.90;13.90;102459.00;;;;5038834;28;20557;-75
2024/01/28 12:02:20;;;;;;;0.20;0.20;;;10.40;99.90;14.20;102436.00;;;;5042337;28;20279;-75
2024/01/28 12:04:46;;;;;;;0.27;0.27;;;10.50;99.90;13.70;102453.00;;;;5042017;28;20176;-75
2024/01/28 12:07:15;;;;;;;0.87;0.87;;;10.60;99.90;13.80;102393.00;;;;5042572;28;20279;-76
2024/01/28 12:09:54;;;;;;;0.50;0.50;;;10.70;99.90;14.20;102435.00;;;;5050650;28;20190;-75
2024/01/28 12:12:22;;;;;;;0.83;0.73;;;10.70;99.90;14.10;102427.00;;;;5014571;28;20623;-75
2024/01/28 12:14:55;;;;;;;0.30;0.30;;;10.90;99.90;14.20;102421.00;;;;5064878;28;20653;-75
2024/01/28 12:17:23;;;;;;;0.10;0.10;;;10.90;99.90;14.20;102425.00;;;;5017128;28;20185;-75
2024/01/28 12:19:51;;;;;;;0.73;0.73;;;10.90;99.90;15.40;102401.00;;;;5033035;28;20312;-75
2024/01/28 12:22:21;;;;;;;0.27;0.27;;;11.30;99.90;15.30;102411.00;;;;5016971;28;20227;-77
2024/01/28 12:24:50;;;;;;;0.30;0.30;;;11.80;99.90;15.10;102408.00;;;;5033272;28;20183;-77
2024/01/28 12:27:20;;;;;;;0.37;0.37;;;11.70;99.90;14.70;102404.00;;;;5033398;28;20189;-76
2024/01/28 12:29:56;;;;;;;0.30;0.30;;;11.50;99.90;15.20;102397.00;;;;5013812;28;20638;-76
2024/01/28 12:32:25;;;;;;;0.40;0.40;;;11.70;99.90;15.70;102384.00;;;;5033545;28;20222;-76
2024/01/28 12:34:51;;;;;;;1.17;1.07;;;11.90;99.90;15.40;102388.00;;;;5030736;28;20232;-77
2024/01/28 12:37:24;;;;;;;0.67;0.67;;;11.90;99.90;15.30;102382.00;;;;5032409;28;20595;-76
2024/01/28 12:39:50;;;;;;;0.30;0.30;;;12.10;99.90;15.20;102337.00;;;;5033169;28;20296;-77
2024/01/28 12:42:19;;;;;;;0.20;0.20;;;12.10;99.90;15.20;102368.00;;;;5015352;28;20210;-77
2024/01/28 12:44:59;;;;;;;0.83;0.50;;;12.10;99.90;14.40;102393.00;;;;5017244;28;20633;-77
2024/01/28 12:47:25;;;;;;;0.70;0.53;;;11.70;99.90;14.60;102392.00;;;;5028851;28;20637;-77
2024/01/28 12:50:05;;;;;;;0.83;0.83;;;11.60;99.90;15.00;102359.00;;;;5025589;28;20182;-71
2024/01/28 12:52:44;;;;;;;0.73;0.57;;;11.80;99.90;15.30;102302.00;;;;5024877;28;20261;-76
2024/01/28 12:55:32;;;;;;;0.10;0.10;;;12.00;99.90;15.30;102352.00;;;;5015731;28;20233;-76
2024/01/28 12:58:10;;;;;;;0.10;0.10;;;12.10;99.90;15.80;102322.00;;;;5034120;28;20199;-77
2024/01/28 13:00:42;;;;;;;1.40;0.60;;;12.40;99.90;15.50;102338.00;;;;5040370;28;20195;-77
2024/01/28 13:03:12;;;;;;;0.57;0.57;;;12.30;99.90;15.40;102356.00;;;;5024342;28;20268;-77
2024/01/28 13:05:40;;;;;;;1.27;1.27;;;12.60;99.90;15.90;102343.00;;;;5041736;28;20835;-77
2024/01/28 13:08:12;;;;;;;1.40;1.07;;;12.50;99.90;15.90;102327.00;;;;5023678;28;20203;-77
2024/01/28 13:10:40;;;;;;;0.30;0.30;;;12.70;99.90;16.00;102320.00;;;;5023852;28;20397;-77
2024/01/28 13:13:11;;;;;;;1.60;1.13;;;12.70;99.90;15.20;102333.00;;;;5039466;28;20317;-77
2024/01/28 13:15:37;;;;;;;0.47;0.47;;;12.50;99.90;15.20;102325.00;;;;5041617;28;20195;-76
2024/01/28 13:18:14;;;;;;;0.73;0.50;;;12.20;99.90;15.30;102271.00;;;;5040745;28;20537;-77
2024/01/28 13:20:40;;;;;;;0.30;0.30;;;12.20;99.90;15.20;102340.00;;;;5024174;28;20667;-77
2024/01/28 13:23:06;;;;;;;0.93;0.60;;;12.10;99.90;14.90;102344.00;;;;5041214;28;20195;-76
2024/01/28 13:25:38;;;;;;;0.97;0.97;;;11.90;99.90;15.90;102322.00;;;;5040708;28;20534;-77
2024/01/28 13:28:16;;;;;;;0.30;0.30;;;12.10;99.90;15.40;102256.00;;;;5025315;28;20289;-76
2024/01/28 13:30:54;;;;;;;0.30;0.30;;;12.30;99.90;16.20;102259.00;;;;5025340;28;20329;-77
2024/01/28 13:33:20;;;;;;;0.67;0.67;;;12.50;99.90;16.70;102295.00;;;;5024680;28;20213;-75
2024/01/28 13:35:49;;;;;;;0.50;0.50;;;12.90;99.90;16.50;102293.00;;;;5047585;28;20734;-76
2024/01/28 13:38:21;;;;;;;0.73;0.73;;;13.10;99.90;16.10;102302.00;;;;5023449;28;20205;-76
2024/01/28 13:40:47;;;;;;;1.20;0.83;;;12.90;99.90;16.30;102270.00;;;;5024744;28;20188;-76
2024/01/28 13:43:12;;;;;;;1.17;1.17;;;12.90;99.90;16.00;102293.00;;;;5024473;28;20217;-76
2024/01/28 13:45:39;;;;;;;0.47;0.47;;;12.80;99.90;16.20;102319.00;;;;5040258;28;20919;-76
2024/01/28 13:48:08;;;;;;;0.20;0.20;;;12.90;99.90;16.10;102303.00;;;;5024229;28;20527;-76
2024/01/28 13:50:34;;;;;;;1.67;1.57;;;12.70;99.90;16.70;102307.00;;;;5040420;28;20584;-76
2024/01/28 13:53:00;;;;;;;3.03;0.83;;;12.90;99.90;16.60;102250.00;;;;5041665;28;20290;-76
2024/01/28 13:55:31;;;;;;;0.10;0.10;;;13.00;99.90;16.50;102300.00;;;;5024390;28;20187;-75
2024/01/28 13:57:57;;;;;;;0.50;0.50;;;13.00;99.90;16.50;102281.00;;;;5039743;28;20710;-72
2024/01/28 14:00:26;;;;;;;0.63;0.20;;;13.10;99.90;16.20;102289.00;;;;5057320;28;20294;-71
2024/01/28 14:02:53;;;;;;;3.23;0.70;;;13.00;99.90;16.30;102291.00;;;;5040266;28;20191;-73
2024/01/28 14:05:24;;;;;;;0.20;0.20;;;12.90;99.90;15.80;102300.00;;;;5040032;28;20631;-72
2024/01/28 14:08:02;;;;;;;0.67;0.67;;;12.80;99.90;15.80;102283.00;;;;5039204;28;20191;-73
2024/01/28 14:10:31;;;;;;;0.93;0.90;;;12.80;99.90;16.30;102287.00;;;;5040642;28;20722;-73
2024/01/28 14:13:00;;;;;;;0.20;0.20;;;12.90;99.90;15.80;102230.00;;;;5055918;28;20261;-73
2024/01/28 14:15:29;;;;;;;0.13;0.13;;;12.70;99.90;15.70;102294.00;;;;5038963;28;20190;-72
2024/01/28 14:17:55;;;;;;;0.20;0.20;;;12.60;99.90;16.00;102247.00;;;;5040361;28;20195;-72
2024/01/28 14:20:24;;;;;;;0.10;0.10;;;12.60;99.90;16.30;102286.00;;;;5024624;28;20191;-72
2024/01/28 14:22:50;;;;;;;0.37;0.37;;;12.70;99.90;16.50;102263.00;;;;5040183;28;20191;-72
2024/01/28 14:25:16;;;;;;;0.10;0.10;;;12.90;99.90;16.20;102221.00;;;;5040067;28;20199;-72
2024/01/28 14:27:47;;;;;;;0.10;0.10;;;12.80;99.90;16.50;102269.00;;;;5040079;28;20197;-72
2024/01/28 14:30:14;;;;;;;0.10;0.10;;;12.80;99.90;16.50;102259.00;;;;5040205;28;20190;-73
2024/01/28 14:32:47;;;;;;;0.67;0.67;;;13.00;99.90;15.90;102295.00;;;;5040003;28;20224;-72
2024/01/28 14:35:17;;;;;;;7.20;3.30;;;12.90;99.90;16.20;102276.00;;;;5041494;28;20209;-72
2024/01/28 14:37:50;;;;;;;0.83;0.83;;;12.80;99.90;16.50;102224.00;;;;5038922;28;20234;-72
2024/01/28 14:40:17;;;;;;;0.30;0.30;;;12.80;99.90;16.30;102285.00;;;;5040561;28;20184;-72
2024/01/28 14:42:46;;;;;;;0.20;0.20;;;13.00;99.90;16.80;102271.00;;;;5022804;28;20661;-72
2024/01/28 14:45:12;;;;;;;0.73;0.73;;;13.10;99.90;17.20;102224.00;;;;5040449;28;20195;-72
2024/01/28 14:47:48;;;;;;;1.70;0.83;;;13.30;99.90;16.40;102271.00;;;;5040316;28;20190;-72
2024/01/28 14:50:20;;;;;;;0.90;0.83;;;13.10;99.90;16.10;102260.00;;;;5055308;28;20171;-72
2024/01/28 14:52:59;;;;;;;1.17;1.17;;;13.00;99.90;16.20;102272.00;;;;5039842;28;20203;-73
2024/01/28 14:55:25;;;;;;;0.50;0.50;;;13.00;99.90;16.40;102213.00;;;;5039879;28;20193;-73
2024/01/28 14:57:54;;;;;;;0.60;0.60;;;12.90;99.90;16.80;102262.00;;;;5023574;28;20596;-73
2024/01/28 15:00:27;;;;;;;0.30;0.30;;;13.10;99.90;16.30;102278.00;;;;5039936;28;20542;-73
2024/01/28 15:02:55;;;;;;;0.57;0.57;;;13.00;99.90;16.30;102236.00;;;;5040030;28;20231;-72
2024/01/28 15:05:21;;;;;;;1.60;1.30;;;12.90;99.90;16.50;102227.00;;;;5038690;28;20542;-72
2024/01/28 15:08:07;;;;;;;0.10;0.10;;;12.80;99.90;16.50;102289.00;;;;5022115;28;20175;-72
2024/01/28 15:10:36;;;;;;;0.10;0.10;;;12.90;99.90;16.40;102288.00;;;;5024273;28;20182;-73
2024/01/28 15:13:02;;;;;;;0.27;0.27;;;12.90;99.90;16.40;102232.00;;;;5039418;28;20207;-73
2024/01/28 15:15:27;;;;;;;0.20;0.20;;;12.90;99.90;16.80;102274.00;;;;5039352;28;20179;-73
2024/01/28 15:18:03;;;;;;;0.73;0.73;;;13.00;99.90;16.30;102277.00;;;;5041400;28;20225;-73
2024/01/28 15:20:29;;;;;;;0.73;0.73;;;12.90;99.90;16.20;102251.00;;;;5043235;28;20202;-72
2024/01/28 15:22:57;;;;;;;0.10;0.10;;;12.80;99.90;16.10;102311.00;;;;5042947;28;20814;-73
2024/01/28 15:25:23;;;;;;;0.40;0.40;;;12.70;99.90;15.50;102317.00;;;;5043043;28;20187;-72
2024/01/28 15:27:55;;;;;;;0.10;0.10;;;12.50;99.90;15.70;102322.00;;;;5026931;28;20243;-72
2024/01/28 15:30:31;;;;;;;0.20;0.20;;;12.40;99.90;15.60;102317.00;;;;5043091;28;20183;-72
2024/01/28 15:32:57;;;;;;;0.10;0.10;;;12.40;99.90;15.80;102257.00;;;;5043288;28;20218;-73
2024/01/28 15:35:23;;;;;;;1.90;0.50;;;12.40;99.90;15.60;102298.00;;;;5043298;28;20219;-73
2024/01/28 15:37:52;;;;;;;0.40;0.40;;;12.40;99.90;16.10;102299.00;;;;5043400;28;20187;-73
2024/01/28 15:40:18;;;;;;;0.20;0.20;;;12.40;99.90;15.90;102332.00;;;;5043198;28;20290;-72
2024/01/28 15:42:47;;;;;;;0.20;0.20;;;12.40;99.90;15.60;102328.00;;;;5043005;28;20554;-73
2024/01/28 15:45:32;;;;;;;0.33;0.33;;;12.30;99.90;15.70;102325.00;;;;5042289;28;20191;-72
2024/01/28 15:48:01;;;;;;;0.20;0.20;;;12.30;99.90;15.70;102307.00;;;;5042572;28;20257;-73
2024/01/28 15:50:34;;;;;;;0.10;0.10;;;12.30;99.90;15.40;102279.00;;;;5021833;28;20199;-71
2024/01/28 15:53:00;;;;;;;0.10;0.10;;;12.20;99.90;15.60;102256.00;;;;5040763;28;20774;-75
2024/01/28 15:55:26;;;;;;;0.53;0.53;;;12.10;99.90;15.70;102325.00;;;;5042563;28;20183;-78
2024/01/28 15:57:55;;;;;;;0.53;0.43;;;12.20;99.90;16.00;102321.00;;;;5026706;28;20195;-71
2024/01/28 16:00:26;;;;;;;0.10;0.10;;;12.20;99.90;16.20;102295.00;;;;5041290;28;20195;-70
2024/01/28 16:02:54;;;;;;;0.23;0.23;;;12.40;99.90;15.70;102317.00;;;;5044350;28;20218;-72
2024/01/28 16:05:20;;;;;;;0.10;0.10;;;12.30;99.90;15.40;102335.00;;;;5058998;28;20668;-72
2024/01/28 16:07:50;;;;;;;0.10;0.10;;;12.10;99.90;15.50;102328.00;;;;5042775;28;20185;-72
2024/01/28 16:10:16;;;;;;;1.23;1.23;;;12.10;99.90;15.50;102270.00;;;;5043382;28;20637;-72
2024/01/28 16:12:45;;;;;;;0.30;0.30;;;12.00;99.90;15.50;102263.00;;;;5042581;28;20202;-72
2024/01/28 16:15:14;;;;;;;0.10;0.10;;;12.00;99.90;14.80;102343.00;;;;5043055;28;20180;-71
2024/01/28 16:17:41;;;;;;;0.30;0.30;;;11.80;99.90;15.10;102328.00;;;;5025212;28;20193;-71
2024/01/28 16:20:18;;;;;;;0.20;0.20;;;11.70;99.90;15.20;102334.00;;;;5042894;28;20193;-72
2024/01/28 16:22:54;;;;;;;0.10;0.10;;;11.70;99.90;14.90;102334.00;;;;5043273;28;20188;-72
2024/01/28 16:25:20;;;;;;;1.20;0.60;;;11.60;99.90;14.90;102328.00;;;;5042182;28;20189;-72
2024/01/28 16:27:46;;;;;;;0.20;0.20;;;11.50;99.90;14.60;102339.00;;;;5043723;28;20517;-72
2024/01/28 16:30:13;;;;;;;0.50;0.30;;;11.40;99.90;14.90;102344.00;;;;5041737;28;20318;-72
2024/01/28 16:32:44;;;;;;;0.73;0.73;;;11.40;99.90;14.90;102332.00;;;;5041726;28;20273;-72
2024/01/28 16:35:13;;;;;;;0.20;0.20;;;11.40;99.90;14.80;102340.00;;;;5040870;28;20199;-72
2024/01/28 16:37:42;;;;;;;0.23;0.23;;;11.40;99.90;14.30;102325.00;;;;5024511;28;20602;-72
2024/01/28 16:40:17;;;;;;;0.23;0.23;;;11.20;99.90;13.80;102340.00;;;;5041629;28;20191;-71
2024/01/28 16:42:46;;;;;;;1.13;1.13;;;11.00;99.90;14.00;102332.00;;;;5042344;28;20649;-72
2024/01/28 16:45:23;;;;;;;0.20;0.20;;;10.90;99.90;14.10;102331.00;;;;5042026;28;20189;-72
2024/01/28 16:47:56;;;;;;;0.50;0.50;;;10.80;99.90;14.00;102329.00;;;;5041375;28;20755;-72
2024/01/28 16:50:22;;;;;;;7.10;2.47;;;10.80;99.90;14.00;102321.00;;;;5041815;28;20576;-72
2024/01/28 16:52:50;;;;;;;0.20;0.20;;;10.80;99.90;14.30;102326.00;;;;5042362;28;20209;-72
2024/01/28 16:55:30;;;;;;;0.20;0.20;;;10.80;99.90;14.10;102320.00;;;;5024348;28;20261;-72
2024/01/28 16:58:00;;;;;;;0.47;0.47;;;10.90;99.90;14.00;102339.00;;;;5058807;28;20206;-71
2024/01/28 17:00:27;;;;;;;0.20;0.20;;;10.80;99.90;14.10;102330.00;;;;5042434;28;20383;-72
2024/01/28 17:02:55;;;;;;;0.20;0.20;;;10.80;99.90;13.80;102262.00;;;;5041361;28;20319;-72
2024/01/28 17:05:24;;;;;;;0.73;0.73;;;10.70;99.90;13.60;102307.00;;;;5041933;28;20681;-71
2024/01/28 17:07:55;;;;;;;0.60;0.60;;;10.60;99.90;13.80;102319.00;;;;5025666;28;20668;-72
2024/01/28 17:10:26;;;;;;;0.20;0.20;;;10.70;99.90;14.00;102317.00;;;;5042018;28;20273;-72
2024/01/28 17:12:55;;;;;;;0.60;0.60;;;10.70;99.90;13.90;102302.00;;;;5041653;28;20208;-72
2024/01/28 17:15:35;;;;;;;0.53;0.53;;;10.70;99.90;13.50;102295.00;;;;5039991;28;20195;-71
2024/01/28 17:18:06;;;;;;;0.87;0.87;;;10.70;99.90;13.40;102287.00;;;;5041666;28;20176;-71
2024/01/28 17:20:35;;;;;;;2.97;1.30;;;10.50;99.90;13.40;102292.00;;;;5040965;28;20645;-72
2024/01/28 17:23:08;;;;;;;0.30;0.30;;;10.50;99.90;13.30;102270.00;;;;5024915;28;20709;-71
2024/01/28 17:25:37;;;;;;;0.97;0.97;;;10.40;99.90;13.50;102271.00;;;;5041109;28;20189;-71
2024/01/28 17:28:07;;;;;;;0.57;0.57;;;10.40;99.90;13.80;102274.00;;;;5041176;28;20187;-71
2024/01/28 17:30:33;;;;;;;0.23;0.23;;;10.50;99.90;13.50;102204.00;;;;5040710;28;20727;-72
2024/01/28 17:32:59;;;;;;;1.70;1.60;;;10.50;99.90;13.80;102273.00;;;;5024069;28;20214;-71
2024/01/28 17:35:29;;;;;;;1.23;1.23;;;10.60;99.90;13.50;102269.00;;;;5041877;28;20211;-71
2024/01/28 17:38:02;;;;;;;0.37;0.37;;;10.50;99.90;13.30;102258.00;;;;5041705;28;20642;-72
2024/01/28 17:40:30;;;;;;;0.87;0.87;;;10.40;99.90;13.40;102265.00;;;;5058198;28;20220;-72
2024/01/28 17:42:56;;;;;;;1.73;1.27;;;10.40;99.90;13.20;102259.00;;;;5039962;28;20187;-71
2024/01/28 17:45:23;;;;;;;1.23;0.97;;;10.30;99.90;12.80;102281.00;;;;5041170;28;20190;-71
2024/01/28 17:47:49;;;;;;;3.37;1.20;;;10.20;99.90;12.80;102290.00;;;;5041344;28;20258;-72
2024/01/28 17:50:15;;;;;;;0.53;0.53;;;10.20;99.90;13.10;102240.00;;;;5040705;28;20703;-72
2024/01/28 17:52:41;;;;;;;0.93;0.80;;;10.20;99.90;12.70;102246.00;;;;5042082;28;20702;-72
2024/01/28 17:55:08;;;;;;;0.50;0.50;;;10.10;99.90;13.30;102267.00;;;;5040645;28;20193;-72
2024/01/28 17:57:34;;;;;;;0.43;0.43;;;10.30;99.90;13.00;102284.00;;;;5043273;28;20189;-72
2024/01/28 18:00:21;;;;;;;2.77;0.80;;;10.30;99.90;12.90;102287.00;;;;5033525;28;20187;-71
2024/01/28 18:02:50;;;;;;;0.30;0.30;;;10.20;99.90;13.20;102281.00;;;;5060395;28;20209;-72
2024/01/28 18:05:21;;;;;;;0.20;0.20;;;10.20;99.90;13.00;102274.00;;;;5032105;28;20193;-72
2024/01/28 18:07:56;;;;;;;0.47;0.47;;;10.20;99.90;13.10;102270.00;;;;5031756;28;20182;-71
2024/01/28 18:10:38;;;;;;;1.17;1.07;;;10.20;99.90;12.80;102270.00;;;;5031830;28;20192;-72
2024/01/28 18:13:07;;;;;;;2.13;1.97;;;10.10;99.90;12.80;102260.00;;;;5020506;28;20672;-72
2024/01/28 18:15:36;;;;;;;0.40;0.40;;;10.00;99.90;12.90;102254.00;;;;5032721;28;20265;-71
2024/01/28 18:18:04;;;;;;;0.20;0.20;;;10.10;99.90;12.60;102271.00;;;;5032123;28;20281;-72
2024/01/28 18:20:36;;;;;;;0.13;0.13;;;10.00;99.90;13.10;102274.00;;;;5031627;28;20214;-71
2024/01/28 18:23:08;;;;;;;0.47;0.47;;;10.10;99.90;12.80;102275.00;;;;5032011;28;20187;-71
2024/01/28 18:25:48;;;;;;;0.70;0.70;;;10.10;99.90;12.60;102272.00;;;;5031793;28;20293;-71
2024/01/28 18:28:26;;;;;;;0.20;0.20;;;10.00;99.90;12.80;102249.00;;;;5032528;28;20181;-72
2024/01/28 18:31:15;;;;;;;0.73;0.73;;;9.90;99.90;12.50;102265.00;;;;5031511;28;20178;-72
2024/01/28 18:33:53;;;;;;;0.37;0.37;;;9.90;99.90;12.60;102264.00;;;;5025915;28;20209;-72
2024/01/28 18:36:35;;;;;;;0.97;0.50;;;9.90;99.90;12.80;102268.00;;;;5031489;28;20308;-72
2024/01/28 18:39:07;;;;;;;0.70;0.70;;;9.90;99.90;12.50;102265.00;;;;5031539;28;20268;-72
2024/01/28 18:41:33;;;;;;;3.40;0.70;;;9.80;99.90;12.80;102271.00;;;;5031696;28;20284;-72
2024/01/28 18:44:11;;;;;;;0.60;0.60;;;9.90;99.90;12.20;102259.00;;;;5036974;28;20217;-73
2024/01/28 18:46:37;;;;;;;0.67;0.67;;;9.70;99.90;12.20;102257.00;;;;5039241;28;20189;-73
2024/01/28 18:49:04;;;;;;;3.43;1.00;;;9.70;99.90;12.40;102279.00;;;;5040377;28;20649;-72
2024/01/28 18:51:30;;;;;;;0.50;0.50;;;9.70;99.90;12.10;102250.00;;;;5057089;28;20637;-73